Home > Products > Valid Products > TAF

000
FTUS43 KDTX 050301 AAA
TAFDTW
TAF AMD
KDTW 050301Z 0503/0606 28007KT P6SM SCT080
     FM051700 33007KT P6SM SCT060
     FM052200 36005KT P6SM SKC=



000
FTUS43 KDTX 050301 AAA
TAFDTW
TAF AMD
KDTW 050301Z 0503/0606 28007KT P6SM SCT080
     FM051700 33007KT P6SM SCT060
     FM052200 36005KT P6SM SKC=



000
FTUS43 KDTX 042333
TAFDTW
TAF
KDTW 042333Z 0500/0606 30007KT P6SM SCT080
     FM051700 33007KT P6SM SCT060
     FM052200 36005KT P6SM SKC=



000
FTUS43 KDTX 042333
TAFDET
TAF
KDET 042333Z 0500/0524 34007KT P6SM SCT080
     FM051700 34007KT P6SM SCT060=



000
FTUS43 KDTX 042333
TAFMBS
TAF
KMBS 042333Z 0500/0524 32007KT P6SM SCT080
     FM051700 34007KT P6SM SCT060=



000
FTUS43 KDTX 042333
TAFFNT
TAF
KFNT 042333Z 0500/0524 32007KT P6SM SCT060
     FM051700 34007KT P6SM SCT060=



000
FTUS43 KDTX 042108 AAA
TAFDTW
TAF AMD
KDTW 042108Z 0421/0524 27013KT P6SM SCT070
     FM050100 30005KT P6SM FEW070=



000
FTUS43 KDTX 041723
TAFDTW
TAF
KDTW 041723Z 0418/0524 27013G21KT P6SM SCT040 BKN060
     FM042300 28009KT P6SM SCT060
     FM050200 30004KT P6SM FEW060=



000
FTUS43 KDTX 041723
TAFDET
TAF
KDET 041723Z 0418/0518 27013G21KT P6SM SCT040 BKN060
     FM042300 28009KT P6SM SCT060
     FM050200 30004KT P6SM FEW060=



000
FTUS43 KDTX 041723
TAFFNT
TAF
KFNT 041723Z 0418/0518 28013G21KT P6SM SCT040 BKN060
      TEMPO 0419/0421 4SM -SHRA BKN040
     FM042300 30009KT P6SM SCT060
     FM050200 31004KT P6SM FEW060=



000
FTUS43 KDTX 041723
TAFMBS
TAF
KMBS 041723Z 0418/0518 28013G21KT P6SM SCT040 BKN060
      TEMPO 0418/0420 4SM -SHRA BKN040
     FM042300 30008KT P6SM SCT060
     FM050200 31004KT P6SM FEW060=



000
FTUS43 KDTX 041723
TAFFNT
TAF
KFNT 041723Z 0418/0518 28013G21KT P6SM SCT040 BKN060
      TEMPO 0419/0421 4SM -SHRA BKN040
     FM042300 30009KT P6SM SCT060
     FM050200 31004KT P6SM FEW060=



000
FTUS43 KDTX 041723
TAFMBS
TAF
KMBS 041723Z 0418/0518 28013G21KT P6SM SCT040 BKN060
      TEMPO 0418/0420 4SM -SHRA BKN040
     FM042300 30008KT P6SM SCT060
     FM050200 31004KT P6SM FEW060=



000
FTUS43 KDTX 041723
TAFDTW
TAF
KDTW 041723Z 0418/0524 27013G21KT P6SM SCT040 BKN060
     FM042300 28009KT P6SM SCT060
     FM050200 30004KT P6SM FEW060=



000
FTUS43 KDTX 041723
TAFDET
TAF
KDET 041723Z 0418/0518 27013G21KT P6SM SCT040 BKN060
     FM042300 28009KT P6SM SCT060
     FM050200 30004KT P6SM FEW060=



000
FTUS43 KDTX 041510 AAA
TAFDTW
TAF AMD
KDTW 041510Z 0415/0518 24006KT P6SM FEW035 SCT080
     FM041700 26013G21KT P6SM BKN060
     FM050000 28009KT P6SM SCT060
     FM050300 30004KT P6SM FEW060=



000
FTUS43 KDTX 041122
TAFMBS
TAF
KMBS 041122Z 0412/0512 26005KT P6SM SCT080
     FM041600 27013G21KT P6SM BKN060
      TEMPO 0417/0419 4SM -SHRA BKN045
     FM050000 30008KT P6SM SCT060
     FM050300 31004KT P6SM FEW060=



000
FTUS43 KDTX 041122
TAFDTW
TAF
KDTW 041122Z 0412/0518 24006KT P6SM SCT080
     FM041600 26013G21KT P6SM BKN060
     FM050000 28009KT P6SM SCT060
     FM050300 30004KT P6SM FEW060=



000
FTUS43 KDTX 041122
TAFFNT
TAF
KFNT 041122Z 0412/0512 25004KT P6SM SCT080
     FM041600 28013G21KT P6SM BKN060
     FM050000 30009KT P6SM SCT060
     FM050300 31004KT P6SM FEW060=



000
FTUS43 KDTX 041122
TAFDET
TAF
KDET 041122Z 0412/0512 24006KT P6SM SCT080
     FM041600 26013G21KT P6SM BKN060
     FM050000 28009KT P6SM SCT060
     FM050300 30004KT P6SM FEW060=



000
FTUS43 KDTX 040829 AAA
TAFDTW
TAF AMD
KDTW 040829Z 0408/0512 24006KT P6SM SCT080
     FM041600 26013G21KT P6SM BKN060
     FM050000 28009KT P6SM SCT060
     FM050300 30005KT P6SM SCT060=



000
FTUS43 KDTX 040522
TAFDTW
TAF
KDTW 040522Z 0406/0512 26005KT P6SM SKC
     FM040800 26006KT P6SM SCT080
     FM041600 26013G21KT P6SM BKN060
     FM050000 28009KT P6SM SCT060
     FM050300 30005KT P6SM SCT060=



000
FTUS43 KDTX 040522
TAFDET
TAF
KDET 040522Z 0406/0506 28004KT P6SM SKC
     FM040800 27006KT P6SM SCT080
     FM041600 27011G18KT P6SM BKN060
     FM050000 30009KT P6SM SCT060
     FM050300 32004KT P6SM SCT060=



000
FTUS43 KDTX 040522
TAFMBS
TAF
KMBS 040522Z 0406/0506 26005KT P6SM BKN080
     FM041600 27013G21KT P6SM BKN060 PROB30 0417/0420 4SM -SHRA
      BKN045
     FM050000 30008KT P6SM BKN060
     FM050300 31005KT P6SM SCT060=



000
FTUS43 KDTX 040522
TAFFNT
TAF
KFNT 040522Z 0406/0506 25004KT P6SM BKN080
     FM041600 28013G21KT P6SM BKN060
     FM050000 30009KT P6SM BKN060
     FM050300 31005KT P6SM SCT060=



000
FTUS43 KDTX 040247 AAA
TAFDTW
TAF AMD
KDTW 040247Z 0403/0506 26006KT P6SM SKC
     FM041100 26006KT P6SM SCT060
     FM041600 27012KT P6SM BKN050
     FM050200 28005KT P6SM SCT050=



000
FTUS43 KDTX 040247 AAA
TAFDTW
TAF AMD
KDTW 040247Z 0403/0506 26006KT P6SM SKC
     FM041100 26006KT P6SM SCT060
     FM041600 27012KT P6SM BKN050
     FM050200 28005KT P6SM SCT050=



000
FTUS43 KDTX 032320
TAFDTW
TAF
KDTW 032320Z 0400/0506 29009KT P6SM FEW060
     FM040200 26006KT P6SM SKC
     FM041100 26006KT P6SM SCT060
     FM041600 27012KT P6SM BKN050
     FM050200 28005KT P6SM SCT050=



000
FTUS43 KDTX 032320
TAFMBS
TAF
KMBS 032320Z 0400/0424 27010KT P6SM BKN090
     FM040200 27005KT P6SM BKN080
     FM041200 27012KT P6SM BKN050=



000
FTUS43 KDTX 032320
TAFMBS
TAF
KMBS 032320Z 0400/0424 27010KT P6SM BKN090
     FM040200 27005KT P6SM BKN080
     FM041200 27012KT P6SM BKN050=



000
FTUS43 KDTX 032320
TAFDET
TAF
KDET 032320Z 0400/0424 29009KT P6SM FEW060
     FM040200 28005KT P6SM SKC
     FM041100 26006KT P6SM SCT060
     FM041600 27010KT P6SM BKN050=



000
FTUS43 KDTX 032320
TAFDET
TAF
KDET 032320Z 0400/0424 29009KT P6SM FEW060
     FM040200 28005KT P6SM SKC
     FM041100 26006KT P6SM SCT060
     FM041600 27010KT P6SM BKN050=



000
FTUS43 KDTX 032320
TAFFNT
TAF
KFNT 032320Z 0400/0424 28010KT P6SM SCT080
     FM040200 26005KT P6SM SCT080
     FM041500 28012KT P6SM BKN050=



000
FTUS43 KDTX 032320
TAFFNT
TAF
KFNT 032320Z 0400/0424 28010KT P6SM SCT080
     FM040200 26005KT P6SM SCT080
     FM041500 28012KT P6SM BKN050=



000
FTUS43 KDTX 032320
TAFDTW
TAF
KDTW 032320Z 0400/0506 29009KT P6SM FEW060
     FM040200 26006KT P6SM SKC
     FM041100 26006KT P6SM SCT060
     FM041600 27012KT P6SM BKN050
     FM050200 28005KT P6SM SCT050=



000
FTUS43 KDTX 032107 AAA
TAFDET
TAF AMD
KDET 032107Z 0321/0418 30010G17KT P6SM SCT060
     FM040000 28008KT P6SM FEW040 SCT100
     FM041500 29010KT P6SM BKN050=



000
FTUS43 KDTX 032106 AAA
TAFDTW
TAF AMD
KDTW 032106Z 0321/0424 29009G17KT P6SM SCT060
     FM040000 27008KT P6SM FEW100
     FM041500 29010KT P6SM BKN050=



000
FTUS43 KDTX 031724
TAFFNT
TAF
KFNT 031724Z 0318/0418 28010G18KT P6SM SCT040
      TEMPO 0318/0320 -SHRA BKN040
     FM040000 29008KT P6SM FEW100
     FM041500 29010KT P6SM BKN050=



000
FTUS43 KDTX 031724
TAFDET
TAF
KDET 031724Z 0318/0418 28010G18KT P6SM SCT030 SCT060
     FM040000 27008KT P6SM FEW040 SCT100
     FM041500 29010KT P6SM BKN050=



000
FTUS43 KDTX 031724
TAFMBS
TAF
KMBS 031724Z 0318/0418 28010G18KT P6SM SCT040 BKN090
     FM040000 29008KT P6SM FEW100
     FM041500 29010KT P6SM BKN050=



000
FTUS43 KDTX 031724
TAFDTW
TAF
KDTW 031724Z 0318/0424 28010G18KT P6SM SCT030 SCT060
     FM040000 27008KT P6SM FEW100
     FM041500 29010KT P6SM BKN050=



000
FTUS43 KDTX 031632 AAB
TAFFNT
TAF AMD
KFNT 031632Z 0317/0412 27012G20KT P6SM SCT050
      TEMPO 0318/0320 -SHRA BKN040
     FM040000 29008KT P6SM SKC=



000
FTUS43 KDTX 031632 AAB
TAFFNT
TAF AMD
KFNT 031632Z 0317/0412 27012G20KT P6SM SCT050
      TEMPO 0318/0320 -SHRA BKN040
     FM040000 29008KT P6SM SKC=



000
FTUS43 KDTX 031505 AAA
TAFDTW
TAF AMD
KDTW 031505Z 0315/0418 27010G15KT P6SM SCT020 SCT050
     FM031700 29012G20KT P6SM SCT050
     FM040000 29008KT P6SM SKC=



000
FTUS43 KDTX 031505 AAA
TAFDTW
TAF AMD
KDTW 031505Z 0315/0418 27010G15KT P6SM SCT020 SCT050
     FM031700 29012G20KT P6SM SCT050
     FM040000 29008KT P6SM SKC=



000
FTUS43 KDTX 031420 AAA
TAFFNT
TAF AMD
KFNT 031420Z 0314/0412 24010G15KT P6SM FEW020 SCT050
     FM031600 29012G20KT P6SM SCT050
     FM040000 29008KT P6SM SKC=



000
FTUS43 KDTX 031420 AAA
TAFMBS
TAF AMD
KMBS 031420Z 0314/0412 25010G15KT P6SM FEW020 SCT050
     FM031600 29012G20KT P6SM SCT050
     FM040000 29008KT P6SM SKC=



000
FTUS43 KDTX 031130
TAFDTW
TAF
KDTW 031130Z 0312/0418 23007KT 6SM BR SCT010 BKN030
      TEMPO 0312/0314 BKN010
     FM031400 27010G15KT P6SM SCT015
     FM031600 29012G20KT P6SM SCT050
     FM040000 29008KT P6SM SKC=



000
FTUS43 KDTX 031130
TAFDET
TAF
KDET 031130Z 0312/0412 25007KT P6SM BKN025
     FM031400 27010G15KT P6SM SCT015
     FM031600 29012G20KT P6SM SCT050
     FM040000 29008KT P6SM SKC=



000
FTUS43 KDTX 031130
TAFFNT
TAF
KFNT 031130Z 0312/0412 21007KT P6SM BKN007 BKN015
     FM031400 29010G20KT P6SM BKN015
     FM031600 29012G20KT P6SM SCT050
     FM040000 29008KT P6SM SKC=



000
FTUS43 KDTX 031130
TAFMBS
TAF
KMBS 031130Z 0312/0412 25005KT 5SM BR SCT008
     FM031400 29010G20KT P6SM BKN015
     FM031600 29012G20KT P6SM SCT050
     FM040000 29008KT P6SM SKC=



000
FTUS43 KDTX 030856 AAA
TAFFNT
TAF AMD
KFNT 030856Z 0309/0406 21007KT P6SM BKN007 BKN035
     FM031400 29010G20KT P6SM BKN015
     FM031600 29012G20KT P6SM SCT050
     FM040000 29008KT P6SM SKC=



000
FTUS43 KDTX 030853 AAA
TAFDET
TAF AMD
KDET 030853Z 0309/0406 25007KT 6SM BR OVC010
     FM031400 27010G15KT P6SM SCT015
     FM031600 29012G20KT P6SM SCT050
     FM040000 29008KT P6SM SKC=



000
FTUS43 KDTX 030852 AAA
TAFDTW
TAF AMD
KDTW 030852Z 0309/0412 23007KT 6SM BR OVC010
     FM031400 27010G15KT P6SM SCT015
     FM031600 29012G20KT P6SM SCT050
     FM040000 29008KT P6SM SKC=



000
FTUS43 KDTX 030852 AAA
TAFDTW
TAF AMD
KDTW 030852Z 0309/0412 23007KT 6SM BR OVC010
     FM031400 27010G15KT P6SM SCT015
     FM031600 29012G20KT P6SM SCT050
     FM040000 29008KT P6SM SKC=



000
FTUS43 KDTX 030521
TAFDET
TAF
KDET 030521Z 0306/0406 17008KT 3SM TSRA BR BKN035 OVC070CB
     FM030800 25010KT 6SM BR BKN035
     FM031000 25005KT 6SM BR OVC010
     FM031400 27010G15KT P6SM SCT015
     FM031600 29012G20KT P6SM SCT050
     FM040000 29008KT P6SM SKC=



000
FTUS43 KDTX 030521
TAFMBS
TAF
KMBS 030521Z 0306/0406 25005KT P6SM BKN007 BKN035
     FM031400 29010G20KT P6SM BKN015
     FM031600 29012G20KT P6SM SCT050
     FM040000 29008KT P6SM SKC=



000
FTUS43 KDTX 030521
TAFFNT
TAF
KFNT 030521Z 0306/0406 20009KT 6SM SHRA BR BKN050
     FM030800 26005KT P6SM BKN007 BKN035
     FM031400 29010G20KT P6SM BKN015
     FM031600 29012G20KT P6SM SCT050
     FM040000 29008KT P6SM SKC=



000
FTUS43 KDTX 030521
TAFFNT
TAF
KFNT 030521Z 0306/0406 20009KT 6SM SHRA BR BKN050
     FM030800 26005KT P6SM BKN007 BKN035
     FM031400 29010G20KT P6SM BKN015
     FM031600 29012G20KT P6SM SCT050
     FM040000 29008KT P6SM SKC=



000
FTUS43 KDTX 030521
TAFDET
TAF
KDET 030521Z 0306/0406 17008KT 3SM TSRA BR BKN035 OVC070CB
     FM030800 25010KT 6SM BR BKN035
     FM031000 25005KT 6SM BR OVC010
     FM031400 27010G15KT P6SM SCT015
     FM031600 29012G20KT P6SM SCT050
     FM040000 29008KT P6SM SKC=



000
FTUS43 KDTX 030521
TAFDTW
TAF
KDTW 030521Z 0306/0412 17008KT 3SM TSRA BR BKN035 OVC070CB
     FM030800 25010KT 6SM BR BKN035
     FM031000 25005KT 6SM BR OVC010
     FM031400 27010G15KT P6SM SCT015
     FM031600 29012G20KT P6SM SCT050
     FM040000 29008KT P6SM SKC=



000
FTUS43 KDTX 030521
TAFDTW
TAF
KDTW 030521Z 0306/0412 17008KT 3SM TSRA BR BKN035 OVC070CB
     FM030800 25010KT 6SM BR BKN035
     FM031000 25005KT 6SM BR OVC010
     FM031400 27010G15KT P6SM SCT015
     FM031600 29012G20KT P6SM SCT050
     FM040000 29008KT P6SM SKC=



000
FTUS43 KDTX 030521
TAFMBS
TAF
KMBS 030521Z 0306/0406 25005KT P6SM BKN007 BKN035
     FM031400 29010G20KT P6SM BKN015
     FM031600 29012G20KT P6SM SCT050
     FM040000 29008KT P6SM SKC=



000
FTUS43 KDTX 030350 AAD
TAFMBS
TAF AMD
KMBS 030350Z 0304/0324 20007KT P6SM BKN007 OVC040
     FM031100 29012KT P6SM SCT050=



000
FTUS43 KDTX 030300 AAE
TAFFNT
TAF AMD
KFNT 030300Z 0303/0324 17009KT P6SM TSRA BKN045CB OVC100
     FM030500 27009KT P6SM SCT035 BKN100
     FM031300 29012KT P6SM SCT050=



000
FTUS43 KDTX 030259 AAC
TAFMBS
TAF AMD
KMBS 030259Z 0303/0324 18010G20KT P6SM SCT035 BKN100
     FM030600 27007KT P6SM SCT035 BKN100
     FM031100 29012KT P6SM SCT050=



000
FTUS43 KDTX 030257 AAA
TAFDTW
TAF AMD
KDTW 030257Z 0303/0406 23017G28KT P6SM BKN070 OVC150
      TEMPO 0303/0305 33020G40KT 2SM TSRA BKN035CB OVC070
     FM030800 25010KT 6SM BR BKN035
     FM031400 29012KT P6SM SCT050=



000
FTUS43 KDTX 030153 AAD
TAFFNT
TAF AMD
KFNT 030153Z 0302/0324 02020G35KT 1SM +TSRA BKN020CB OVC050
     FM030215 05012KT P6SM -SHRA SCT020 BKN035
     FM030500 27009KT P6SM SCT035 BKN100
     FM031300 29012KT P6SM SCT050=



000
FTUS43 KDTX 030144 AAC
TAFFNT
TAF AMD
KFNT 030144Z 0302/0324 05015KT P6SM SCT035 OVC070
      TEMPO 0302/0303 34022G32KT 2SM TSRA OVC035CB
     FM030300 25010KT P6SM -SHRA BKN035
     FM030500 27009KT P6SM SCT035 BKN100
     FM031300 29012KT P6SM SCT050=



000
FTUS43 KDTX 030140 AAA
TAFDET
TAF AMD
KDET 030140Z 0302/0324 05015KT P6SM BKN070 OVC150
      TEMPO 0303/0305 2SM TSRA BKN035CB OVC070
     FM030500 19008KT P6SM -SHRA BKN045
     FM030700 25010KT 6SM BR BKN035
     FM031200 29012KT P6SM SCT050=



000
FTUS43 KDTX 030120 AAB
TAFMBS
TAF AMD
KMBS 030120Z 0301/0324 20012KT P6SM -SHRA BKN035 OVC060
      TEMPO 0301/0302 33015KT 2SM TSRA OVC035CB
     FM030400 25010KT P6SM SCT035 BKN100
     FM031100 29012KT P6SM SCT050=



000
FTUS43 KDTX 030118 AAB
TAFFNT
TAF AMD
KFNT 030118Z 0301/0324 04014KT P6SM SCT035 OVC070
      TEMPO 0301/0303 2SM TSRA OVC035CB
     FM030300 25010KT P6SM -SHRA BKN035
     FM030500 27009KT P6SM SCT035 BKN100
     FM031300 29012KT P6SM SCT050=



000
FTUS43 KDTX 030118 AAB
TAFFNT
TAF AMD
KFNT 030118Z 0301/0324 04014KT P6SM SCT035 OVC070
      TEMPO 0301/0303 2SM TSRA OVC035CB
     FM030300 25010KT P6SM -SHRA BKN035
     FM030500 27009KT P6SM SCT035 BKN100
     FM031300 29012KT P6SM SCT050=



000
FTUS43 KDTX 030008 AAA
TAFFNT
TAF AMD
KFNT 030008Z 0300/0324 22017G25KT P6SM SCT060 BKN150
      TEMPO 0300/0301 01018KT P6SM BKN080
     FM030100 23012G20KT P6SM BKN060 OVC120
      TEMPO 0301/0305 2SM TSRA BKN035CB OVC070
     FM030700 25010KT 6SM BR BKN035
     FM031300 29012KT P6SM SCT050=



000
FTUS43 KDTX 030008 AAA
TAFFNT
TAF AMD
KFNT 030008Z 0300/0324 22017G25KT P6SM SCT060 BKN150
      TEMPO 0300/0301 01018KT P6SM BKN080
     FM030100 23012G20KT P6SM BKN060 OVC120
      TEMPO 0301/0305 2SM TSRA BKN035CB OVC070
     FM030700 25010KT 6SM BR BKN035
     FM031300 29012KT P6SM SCT050=



000
FTUS43 KDTX 030007 AAA
TAFMBS
TAF AMD
KMBS 030007Z 0300/0324 23014G22KT P6SM BKN060 OVC120
      TEMPO 0300/0302 36015KT 2SM TSRA BKN035CB OVC070
     FM030600 25010KT 6SM BR BKN035
     FM031200 29012KT P6SM SCT050=



000
FTUS43 KDTX 022320
TAFDET
TAF
KDET 022320Z 0300/0324 23017G25KT P6SM SCT070 BKN200
     FM030200 23014G22KT P6SM BKN070 OVC150
      TEMPO 0303/0306 2SM TSRA BKN035CB OVC070
     FM030800 25010KT 6SM BR BKN035
     FM031400 29012KT P6SM SCT050=



000
FTUS43 KDTX 022320
TAFFNT
TAF
KFNT 022320Z 0300/0324 22017G25KT P6SM SCT060 BKN150
     FM030100 23014G22KT P6SM BKN060 OVC120
      TEMPO 0301/0305 2SM TSRA BKN035CB OVC070
     FM030700 25010KT 6SM BR BKN035
     FM031300 29012KT P6SM SCT050=



000
FTUS43 KDTX 022320
TAFDTW
TAF
KDTW 022320Z 0300/0406 22017G25KT P6SM SCT070 BKN200
     FM030200 23014G22KT P6SM BKN070 OVC150
      TEMPO 0303/0306 2SM TSRA BKN035CB OVC070
     FM030800 25010KT 6SM BR BKN035
     FM031400 29012KT P6SM SCT050=



000
FTUS43 KDTX 022320
TAFMBS
TAF
KMBS 022320Z 0300/0324 23014G22KT P6SM BKN060 OVC120
      TEMPO 0300/0304 2SM TSRA BKN035CB OVC070
     FM030600 25010KT 6SM BR BKN035
     FM031200 29012KT P6SM SCT050=



000
FTUS43 KDTX 022320
TAFDET
TAF
KDET 022320Z 0300/0324 23017G25KT P6SM SCT070 BKN200
     FM030200 23014G22KT P6SM BKN070 OVC150
      TEMPO 0303/0306 2SM TSRA BKN035CB OVC070
     FM030800 25010KT 6SM BR BKN035
     FM031400 29012KT P6SM SCT050=



000
FTUS43 KDTX 022320
TAFMBS
TAF
KMBS 022320Z 0300/0324 23014G22KT P6SM BKN060 OVC120
      TEMPO 0300/0304 2SM TSRA BKN035CB OVC070
     FM030600 25010KT 6SM BR BKN035
     FM031200 29012KT P6SM SCT050=



000
FTUS43 KDTX 022320
TAFDTW
TAF
KDTW 022320Z 0300/0406 22017G25KT P6SM SCT070 BKN200
     FM030200 23014G22KT P6SM BKN070 OVC150
      TEMPO 0303/0306 2SM TSRA BKN035CB OVC070
     FM030800 25010KT 6SM BR BKN035
     FM031400 29012KT P6SM SCT050=



000
FTUS43 KDTX 022320
TAFFNT
TAF
KFNT 022320Z 0300/0324 22017G25KT P6SM SCT060 BKN150
     FM030100 23014G22KT P6SM BKN060 OVC120
      TEMPO 0301/0305 2SM TSRA BKN035CB OVC070
     FM030700 25010KT 6SM BR BKN035
     FM031300 29012KT P6SM SCT050=



000
FTUS43 KDTX 022316 AAC
TAFMBS
TAF AMD
KMBS 022316Z 0223/0318 22018G26KT P6SM SCT060 BKN150
      TEMPO 0223/0301 34020G30KT 2SM TSRA BKN040CB OVC080
     FM030600 25010KT 6SM BR BKN030
     FM031200 29010KT P6SM SCT050=



000
FTUS43 KDTX 022316 AAC
TAFMBS
TAF AMD
KMBS 022316Z 0223/0318 22018G26KT P6SM SCT060 BKN150
      TEMPO 0223/0301 34020G30KT 2SM TSRA BKN040CB OVC080
     FM030600 25010KT 6SM BR BKN030
     FM031200 29010KT P6SM SCT050=



000
FTUS43 KDTX 022144 AAA
TAFFNT
TAF AMD
KFNT 022144Z 0222/0318 23014G26KT P6SM FEW080 BKN200
     FM030100 22014G22KT P6SM BKN050 BKN120
      TEMPO 0302/0305 2SM TSRA BKN040CB OVC080
     FM030700 25010KT 6SM BR BKN030
     FM031300 29012KT P6SM SCT050=



000
FTUS43 KDTX 022142 AAB
TAFMBS
TAF AMD
KMBS 022142Z 0222/0318 22018G26KT P6SM SCT060 BKN150
     FM030000 22014G22KT P6SM BKN050 BKN120
      TEMPO 0300/0303 2SM TSRA BKN040CB OVC080
     FM030600 25010KT 6SM BR BKN030
     FM031200 29010KT P6SM SCT050=



000
FTUS43 KDTX 022022 AAA
TAFDTW
TAF AMD
KDTW 022022Z 0220/0324 23018G25KT P6SM SCT060 SCT200
     FM030100 22014G22KT P6SM BKN050 BKN120
      TEMPO 0303/0306 2SM TSRA BKN035CB OVC070
     FM030800 25010KT 6SM BR BKN030
     FM031400 29012KT P6SM SCT050=



000
FTUS43 KDTX 021810 AAA
TAFMBS
TAF AMD
KMBS 021810Z 0218/0318 24015G25KT P6SM SCT035 BKN100
      TEMPO 0218/0219 25020G30KT 2SM TSRA BKN035CB OVC070
     FM030100 22014G22KT P6SM BKN050 BKN120
      TEMPO 0301/0304 2SM TSRA BKN040CB OVC080
     FM030600 29010KT 6SM BR BKN030=



000
FTUS43 KDTX 021810 AAA
TAFMBS
TAF AMD
KMBS 021810Z 0218/0318 24015G25KT P6SM SCT035 BKN100
      TEMPO 0218/0219 25020G30KT 2SM TSRA BKN035CB OVC070
     FM030100 22014G22KT P6SM BKN050 BKN120
      TEMPO 0301/0304 2SM TSRA BKN040CB OVC080
     FM030600 29010KT 6SM BR BKN030=



000
FTUS43 KDTX 021741
TAFFNT
TAF
KFNT 021741Z 0218/0318 24014G24KT P6SM SCT060 BKN200
     FM030100 22014G22KT P6SM BKN050 BKN120
      TEMPO 0302/0305 2SM TSRA BKN040CB OVC080
     FM030700 29010KT 6SM BR BKN030=



000
FTUS43 KDTX 021741
TAFMBS
TAF
KMBS 021741Z 0218/0318 24014G24KT P6SM SCT060 BKN150
     FM030100 22014G22KT P6SM BKN050 BKN120
      TEMPO 0301/0304 2SM TSRA BKN040CB OVC080
     FM030600 29010KT 6SM BR BKN030=



000
FTUS43 KDTX 021741
TAFDET
TAF
KDET 021741Z 0218/0318 24014G24KT P6SM SCT060
     FM030100 22014G22KT P6SM BKN050 BKN120 PROB30 0303/0306 2SM
      TSRA BKN040CB OVC080
     FM030800 29010KT 6SM BR BKN030=



000
FTUS43 KDTX 021741
TAFDTW
TAF
KDTW 021741Z 0218/0324 24014G24KT P6SM SCT060 SCT200
     FM030100 22014G22KT P6SM BKN050 BKN120 PROB30 0303/0306 2SM
      TSRA BKN040CB OVC080
     FM030800 29010KT 6SM BR BKN030=



000
FTUS43 KDTX 021506 AAA
TAFDTW
TAF AMD
KDTW 021506Z 0215/0318 22012KT P6SM FEW080 BKN200
     FM021700 24013G22KT P6SM SCT050
     FM021900 24014G24KT P6SM SCT060
     FM030100 22014G22KT P6SM BKN050 BKN120 PROB30 0303/0306 2SM
      TSRA BKN040CB OVC080
     FM030800 29010KT 6SM BR BKN030=



000
FTUS43 KDTX 021506 AAA
TAFDTW
TAF AMD
KDTW 021506Z 0215/0318 22012KT P6SM FEW080 BKN200
     FM021700 24013G22KT P6SM SCT050
     FM021900 24014G24KT P6SM SCT060
     FM030100 22014G22KT P6SM BKN050 BKN120 PROB30 0303/0306 2SM
      TSRA BKN040CB OVC080
     FM030800 29010KT 6SM BR BKN030=



000
FTUS43 KDTX 021121
TAFMBS
TAF
KMBS 021121Z 0212/0312 25008KT P6SM OVC150
     FM021500 22011G18KT P6SM SCT060
     FM021800 24016G29KT P6SM SCT070
      TEMPO 0218/0221 -TSRA BKN050CB
     FM030000 26014G22KT 2SM TSRA BKN040CB
     FM030300 27012KT P6SM BKN030=



000
FTUS43 KDTX 021121
TAFDET
TAF
KDET 021121Z 0212/0312 24009KT P6SM SCT150
     FM021600 24014G24KT P6SM SCT060
     FM030100 22014G22KT P6SM BKN050 BKN120 PROB30 0303/0306 2SM
      TSRA BKN040CB OVC080=



000
FTUS43 KDTX 021121
TAFDTW
TAF
KDTW 021121Z 0212/0318 24009KT P6SM SCT150
     FM021600 24013G22KT P6SM SCT050
     FM021900 24014G24KT P6SM SCT060
     FM030100 22014G22KT P6SM BKN050 BKN120 PROB30 0303/0306 2SM
      TSRA BKN040CB OVC080
     FM030800 29010KT 6SM BR BKN030=



000
FTUS43 KDTX 021121
TAFFNT
TAF
KFNT 021121Z 0212/0312 24008KT P6SM OVC150
     FM021500 22011G18KT P6SM SCT060
     FM021800 24016G28KT P6SM SCT070
      TEMPO 0218/0221 -TSRA BKN050CB
     FM030100 26014G22KT 2SM TSRA BKN040CB
     FM030400 27012KT P6SM BKN030=



000
FTUS43 KDTX 021121
TAFMBS
TAF
KMBS 021121Z 0212/0312 25008KT P6SM OVC150
     FM021500 22011G18KT P6SM SCT060
     FM021800 24016G29KT P6SM SCT070
      TEMPO 0218/0221 -TSRA BKN050CB
     FM030000 26014G22KT 2SM TSRA BKN040CB
     FM030300 27012KT P6SM BKN030=



000
FTUS43 KDTX 021121
TAFDET
TAF
KDET 021121Z 0212/0312 24009KT P6SM SCT150
     FM021600 24014G24KT P6SM SCT060
     FM030100 22014G22KT P6SM BKN050 BKN120 PROB30 0303/0306 2SM
      TSRA BKN040CB OVC080=



000
FTUS43 KDTX 021121
TAFDTW
TAF
KDTW 021121Z 0212/0318 24009KT P6SM SCT150
     FM021600 24013G22KT P6SM SCT050
     FM021900 24014G24KT P6SM SCT060
     FM030100 22014G22KT P6SM BKN050 BKN120 PROB30 0303/0306 2SM
      TSRA BKN040CB OVC080
     FM030800 29010KT 6SM BR BKN030=



000
FTUS43 KDTX 021121
TAFFNT
TAF
KFNT 021121Z 0212/0312 24008KT P6SM OVC150
     FM021500 22011G18KT P6SM SCT060
     FM021800 24016G28KT P6SM SCT070
      TEMPO 0218/0221 -TSRA BKN050CB
     FM030100 26014G22KT 2SM TSRA BKN040CB
     FM030400 27012KT P6SM BKN030=



000
FTUS43 KDTX 020905 AAB
TAFDTW
TAF AMD
KDTW 020905Z 0209/0312 24007KT P6SM SCT250
     FM021600 24013G22KT P6SM SCT050
     FM021900 24015G24KT P6SM SCT060
     FM030100 22014G22KT P6SM BKN050 BKN120 PROB30 0303/0306 2SM
      TSRA BKN040CB OVC080
     FM030800 29010KT 6SM BR BKN030=



000
FTUS43 KDTX 020755 CCA
TAFDET
TAF COR
KDET 020755Z 0207/0306 24009KT P6SM SCT250
     FM021600 24015G24KT P6SM SCT060
     FM030100 22014G22KT P6SM BKN050 BKN120 PROB30 0303/0306 2SM
      TSRA BKN040CB OVC080=



000
FTUS43 KDTX 020722 AAA
TAFDET
TAF AMD
KDET 020722Z 0207/0306 24009KT P6SM SCT250
     FM021900 24015G24KT P6SM SCT060
     FM030100 22014G22KT P6SM BKN050 BKN120 PROB30 0303/0306 2SM
      TSRA BKN040CB OVC080=



000
FTUS43 KDTX 020721 AAA
TAFDTW
TAF AMD
KDTW 020721Z 0207/0312 24009KT P6SM SCT250
     FM021700 24013G22KT P6SM SCT050
     FM021900 24015G24KT P6SM SCT060
     FM030100 22014G22KT P6SM BKN050 BKN120 PROB30 0303/0306 2SM
      TSRA BKN040CB OVC080
     FM030800 29010KT 6SM BR BKN030=



000
FTUS43 KDTX 020721 AAA
TAFDTW
TAF AMD
KDTW 020721Z 0207/0312 24009KT P6SM SCT250
     FM021700 24013G22KT P6SM SCT050
     FM021900 24015G24KT P6SM SCT060
     FM030100 22014G22KT P6SM BKN050 BKN120 PROB30 0303/0306 2SM
      TSRA BKN040CB OVC080
     FM030800 29010KT 6SM BR BKN030=



000
FTUS43 KDTX 020520
TAFDET
TAF
KDET 020520Z 0206/0306 24006KT P6SM SCT250
     FM021400 22011G18KT P6SM SCT080 BKN150
     FM021700 24015G24KT P6SM SCT045 BKN200 PROB30 0218/0221 5SM
      TSRA BKN045CB OVC060
     FM030000 22014G22KT P6SM BKN050 BKN120 PROB30 0303/0306 2SM
      TSRA BKN040CB OVC080=



000
FTUS43 KDTX 020520
TAFMBS
TAF
KMBS 020520Z 0206/0306 25008KT P6SM SCT250
     FM021400 22011G18KT P6SM SCT080 BKN150
     FM021700 24016G26KT P6SM SCT045 BKN200
     FM030000 26014G22KT P6SM BKN050 BKN120 PROB30 0300/0303 2SM
      TSRA BKN040CB OVC080=



000
FTUS43 KDTX 020520
TAFFNT
TAF
KFNT 020520Z 0206/0306 24008KT P6SM SCT250
     FM021400 22011G18KT P6SM SCT080 BKN150
     FM021700 24016G26KT P6SM SCT045 BKN200 PROB30 0218/0221 5SM
      TSRA BKN045CB OVC060
     FM030000 22014G22KT P6SM BKN050 BKN120 PROB30 0301/0304 2SM
      TSRA BKN040CB OVC080=



000
FTUS43 KDTX 020520
TAFDTW
TAF
KDTW 020520Z 0206/0312 24006KT P6SM SCT250
     FM021400 22011G18KT P6SM SCT080 BKN150
     FM021700 24015G24KT P6SM SCT045 BKN200 PROB30 0218/0221 5SM
      TSRA BKN045CB OVC060
     FM030000 22014G22KT P6SM BKN050 BKN120 PROB30 0303/0306 2SM
      TSRA BKN040CB OVC080
     FM030800 29010KT 6SM SHRA BKN040 OVC060=



000
FTUS43 KDTX 020520
TAFFNT
TAF
KFNT 020520Z 0206/0306 24008KT P6SM SCT250
     FM021400 22011G18KT P6SM SCT080 BKN150
     FM021700 24016G26KT P6SM SCT045 BKN200 PROB30 0218/0221 5SM
      TSRA BKN045CB OVC060
     FM030000 22014G22KT P6SM BKN050 BKN120 PROB30 0301/0304 2SM
      TSRA BKN040CB OVC080=



000
FTUS43 KDTX 020520
TAFMBS
TAF
KMBS 020520Z 0206/0306 25008KT P6SM SCT250
     FM021400 22011G18KT P6SM SCT080 BKN150
     FM021700 24016G26KT P6SM SCT045 BKN200
     FM030000 26014G22KT P6SM BKN050 BKN120 PROB30 0300/0303 2SM
      TSRA BKN040CB OVC080=



    US Dept of Commerce
    National Oceanic and Atmospheric Administration
    National Weather Service
    1325 East West Highway
    Silver Spring, MD 20910
    Page Author: NWS Internet Services Team
Disclaimer
Information Quality
Credits
Glossary
Privacy Policy
Freedom of Information Act (FOIA)
About Us
Career Opportunities